Main page
METAR-TAF:

METAR-TAF

Airports :

Agra Airport

Agra, India

latitude: 27-09-27N, longitude: 077-57-39E, elevation: 168 m

METAR: missing

Time: 03:33 (22:03 UTC)

Forecast

The report was made 6 hours and 33 minutes ago, at 15:30 UTC
Forecast valid from 05 at 18 UTC to 06 at 06 UTC
Wind 5 kt from the East
Visibility: 6000 m
Few clouds at a height of 2500 ft
Scattered clouds at a height of 25000 ft
Temporary
from 05 at 23 UTC to 06 at 02 UTC
Wind 10 kt from the East with gusts up to 20 kt
Visibility: 5000 m
Scattered clouds at a height of 2500 ft
Few clouds at a height of 3000 ft, Towering cumulus.
Scattered clouds at a height of 10000 ft
mist

TAF: VIAG 051530Z 0518/0606 10005KT 6000 FEW025 SCT250 TEMPO 0523/0602 10010G20KT 5000 BR SCT025 FEW030TCU SCT100

Weather observations and forecasts of more than 4000 airports (METAR and TAF reports).

The available stations are represented by yellow and red dots on the map.

Hover mouse over dot to see the name of the station.

Then click to see weather observations and forecasts.

To change the map : click on the green buttons with a black cross to zoom in, on the green button with a dash to zoom out, or on the green arrows for adjacent maps.


METAR-TAF: